createdAt,value
2023-11-05T09:18:02.646Z,95.85
2023-11-05T09:18:33.571Z,96.05
2023-11-05T09:19:02.801Z,96.46
2023-11-05T09:19:33.325Z,97.17
2023-11-05T09:20:03.857Z,97.58
2023-11-05T09:20:34.363Z,97.63
2023-11-05T09:23:23.176Z,97.22
2023-11-05T09:23:53.251Z,97.33
2023-11-05T09:24:23.990Z,97.42
2023-11-05T09:24:55.192Z,97.53
2023-11-05T09:25:24.939Z,97.53
2023-11-05T09:25:55.506Z,97.53
2023-11-05T09:26:27.053Z,97.74
2023-11-05T09:26:56.842Z,97.83
2023-11-05T09:27:27.327Z,97.94
2023-11-05T09:30:11.533Z,97.63
2023-11-05T09:30:42.179Z,97.94
2023-11-05T09:31:12.668Z,98.04
2023-11-05T09:31:43.193Z,98.45
2023-11-05T09:32:13.679Z,98.75
2023-11-05T09:32:44.528Z,98.86
2023-11-05T09:33:14.396Z,98.75
2023-11-05T09:33:44.908Z,98.55
2023-11-05T09:34:15.454Z,98.55
2023-11-05T09:34:45.994Z,98.04
2023-11-05T09:35:16.617Z,97.94
2023-11-05T09:35:47.161Z,98.24
2023-11-05T09:36:17.768Z,98.24
2023-11-05T09:36:48.290Z,98.55
2023-11-05T09:37:18.962Z,98.75
2023-11-05T09:37:49.550Z,98.65
2023-11-05T09:38:20.209Z,98.75
2023-11-05T09:38:50.804Z,98.86
2023-11-05T09:39:21.333Z,98.96
2023-11-05T09:39:51.827Z,98.86
2023-11-05T09:40:22.409Z,98.86
2023-11-05T09:40:52.972Z,98.75
2023-11-05T09:41:23.424Z,99.06
2023-11-05T09:41:54.134Z,98.86
2023-11-05T09:42:24.666Z,98.55
2023-11-05T09:42:55.384Z,98.50
2023-11-05T09:43:25.966Z,98.71
2023-11-05T09:43:56.540Z,98.61
2023-11-05T09:44:27.078Z,98.71
2023-11-05T09:44:57.759Z,98.91
2023-11-05T09:45:28.318Z,99.02
2023-11-05T09:45:58.863Z,98.91
2023-11-05T09:46:29.330Z,98.81
2023-11-05T09:46:59.763Z,98.91
2023-11-05T09:47:30.200Z,98.71
2023-11-05T09:48:00.730Z,98.71
2023-11-05T09:48:31.324Z,98.71
2023-11-05T09:49:01.741Z,98.81
2023-11-05T09:49:32.269Z,99.02
2023-11-05T09:50:04.885Z,98.91
2023-11-05T09:50:33.164Z,98.81
2023-11-05T09:51:03.717Z,98.61
2023-11-05T09:51:34.187Z,98.30
2023-11-05T09:52:04.695Z,98.20
2023-11-05T09:52:35.274Z,98.30
2023-11-05T09:53:05.731Z,97.79
2023-11-05T09:53:36.230Z,97.69
2023-11-05T09:54:06.680Z,97.69
2023-11-05T09:54:37.135Z,97.17
2023-11-05T09:55:07.620Z,97.28
2023-11-05T09:55:38.170Z,97.38
2023-11-05T09:56:08.632Z,97.69
2023-11-05T09:56:39.084Z,97.79
2023-11-05T09:57:09.525Z,97.99
2023-11-05T09:57:40.015Z,98.30
2023-11-05T09:58:10.503Z,98.40
2023-11-05T09:58:41.018Z,98.61
2023-11-05T09:59:11.630Z,98.50
2023-11-05T09:59:42.057Z,98.61
2023-11-05T10:00:12.562Z,98.61
2023-11-05T10:00:43.038Z,98.61
2023-11-05T10:01:13.497Z,98.71
2023-11-05T10:01:43.999Z,98.61
2023-11-05T10:02:14.478Z,98.50
2023-11-05T10:02:45.005Z,98.50
2023-11-05T10:03:15.626Z,98.50
2023-11-05T10:03:46.198Z,98.61
2023-11-05T10:04:16.695Z,98.81
2023-11-05T10:04:47.220Z,98.71
2023-11-05T10:05:17.706Z,98.81
2023-11-05T10:05:48.225Z,98.91
2023-11-05T10:06:18.701Z,98.91
2023-11-05T10:06:49.247Z,98.91
2023-11-05T10:07:19.698Z,98.91
2023-11-05T10:07:50.153Z,98.20
2023-11-05T10:08:20.601Z,97.89
2023-11-05T10:08:51.065Z,98.10
2023-11-05T10:09:21.580Z,98.50
2023-11-05T10:09:53.820Z,98.71
2023-11-05T10:10:23.021Z,99.02
2023-11-05T10:10:53.612Z,99.22
2023-11-05T10:11:24.100Z,99.02
2023-11-05T10:11:54.545Z,99.02
2023-11-05T10:12:27.307Z,99.32
2023-11-05T10:12:55.554Z,99.43
2023-11-05T10:13:26.064Z,99.43
2023-11-05T10:13:56.599Z,99.52
2023-11-05T10:14:27.092Z,99.11
2023-11-05T10:14:57.533Z,98.50
2023-11-05T10:15:27.989Z,97.99
2023-11-05T10:15:58.548Z,97.03
2023-11-05T10:16:29.056Z,97.03
2023-11-05T10:16:59.475Z,97.24
2023-11-05T10:17:41.399Z,96.72
2023-11-05T10:18:00.394Z,97.13
2023-11-05T10:18:40.115Z,96.92
2023-11-05T10:19:01.285Z,97.13
2023-11-05T10:19:31.973Z,96.72
2023-11-05T10:20:02.525Z,96.92
2023-11-05T10:20:33.982Z,96.62
2023-11-05T10:21:03.793Z,97.13
2023-11-05T10:21:34.317Z,97.44
2023-11-05T10:22:04.852Z,97.54
2023-11-05T10:22:48.121Z,97.69
2023-11-05T10:23:05.806Z,97.89
2023-11-05T10:23:37.421Z,98.10
2023-11-05T10:24:06.630Z,98.30
2023-11-05T10:24:37.219Z,98.30
2023-11-05T10:25:07.831Z,98.20
2023-11-05T10:25:38.402Z,98.10
2023-11-05T10:26:08.935Z,97.99
2023-11-05T10:26:39.485Z,97.99
2023-11-05T10:27:10.051Z,97.99
2023-11-05T10:27:40.602Z,97.89
2023-11-05T10:28:11.175Z,97.69
2023-11-05T10:28:41.755Z,97.58
2023-11-05T10:29:12.206Z,98.10
2023-11-05T10:29:42.823Z,98.20
2023-11-05T10:30:13.474Z,98.30
2023-11-05T10:30:43.968Z,98.40
2023-11-05T10:31:15.028Z,97.89
2023-11-05T10:31:46.241Z,97.99
2023-11-05T10:32:15.761Z,97.49
2023-11-05T10:32:46.430Z,97.28
2023-11-05T10:33:16.585Z,97.58
2023-11-05T10:33:47.219Z,97.69
2023-11-05T10:34:17.767Z,97.79
2023-11-05T10:34:48.508Z,97.74
2023-11-05T10:35:19.109Z,97.63
2023-11-05T10:35:49.620Z,97.83
2023-11-05T10:36:20.194Z,98.04
2023-11-05T10:36:50.693Z,98.24
2023-11-05T10:37:23.390Z,98.35
2023-11-05T10:37:51.788Z,98.55
2023-11-05T10:38:22.321Z,98.55
2023-11-05T10:38:52.784Z,98.35
2023-11-05T10:39:23.263Z,98.55
2023-11-05T10:39:53.780Z,98.65
2023-11-05T10:40:24.256Z,98.75
2023-11-05T10:40:54.842Z,98.96
2023-11-05T10:41:25.289Z,99.06
2023-11-05T10:41:55.789Z,98.65
2023-11-05T10:42:26.325Z,97.83
2023-11-05T10:42:57.054Z,97.83
2023-11-05T10:43:27.618Z,97.83
2023-11-05T10:43:58.059Z,98.14
2023-11-05T10:44:28.557Z,98.14
2023-11-05T10:46:31.910Z,98.86
2023-11-05T10:47:02.640Z,98.75
2023-11-05T10:47:33.201Z,98.55
2023-11-05T10:49:37.891Z,97.94
2023-11-05T10:50:08.527Z,97.63
2023-11-05T10:50:39.242Z,97.74
2023-11-05T10:51:09.910Z,97.69
2023-11-05T10:51:40.960Z,97.79
2023-11-05T10:52:11.599Z,97.89
2023-11-05T10:52:46.042Z,97.79
2023-11-05T12:57:11.962Z,91.74
2023-11-05T12:57:33.746Z,91.22
2023-11-05T12:58:04.389Z,90.71
2023-11-05T12:58:35.307Z,90.51
2023-11-05T12:59:05.779Z,90.31
2023-11-05T12:59:36.693Z,90.61
2023-11-05T13:00:07.458Z,90.92
2023-11-05T13:00:37.256Z,90.81
2023-11-05T13:01:07.678Z,91.02
2023-11-05T13:01:38.193Z,90.92
2023-11-05T13:02:08.737Z,89.65
2023-11-05T13:02:39.364Z,89.86
2023-11-05T13:03:10.169Z,89.55
2023-11-05T13:03:41.297Z,89.65
2023-11-05T13:04:11.461Z,89.86
2023-11-05T13:04:42.294Z,89.61
2023-11-05T13:05:13.195Z,89.00
2023-11-05T13:05:43.466Z,88.79
2023-11-05T13:06:13.441Z,88.90
2023-11-05T13:06:43.973Z,87.77
2023-11-05T13:07:14.457Z,86.96
2023-11-05T13:07:44.924Z,86.96
2023-11-05T13:08:15.431Z,87.67
2023-11-05T13:08:45.835Z,87.16
2023-11-05T13:09:17.775Z,86.96
2023-11-05T13:09:46.689Z,86.65
2023-11-05T13:10:17.146Z,86.35
2023-11-05T13:10:47.646Z,86.65
2023-11-05T13:11:18.095Z,87.88
2023-11-05T13:11:48.599Z,86.24
2023-11-05T13:12:19.024Z,86.04
2023-11-05T13:12:49.488Z,86.35
2023-11-05T13:13:20.126Z,85.74
2023-11-05T13:13:50.597Z,86.04
2023-11-05T13:14:21.017Z,85.16
2023-11-05T13:14:51.497Z,85.16
2023-11-05T13:15:21.966Z,85.37
2023-11-05T13:15:52.413Z,85.57
2023-11-05T13:16:22.975Z,86.18
2023-11-05T13:16:53.609Z,84.86
2023-11-05T13:17:24.044Z,85.06
2023-11-05T13:17:54.504Z,85.37
2023-11-05T13:18:25.070Z,85.16
2023-11-05T13:18:55.684Z,84.96
2023-11-05T13:19:26.178Z,85.88
2023-11-05T13:19:56.711Z,86.39
2023-11-05T13:20:27.131Z,86.22
2023-11-05T13:20:57.617Z,86.02
2023-11-05T13:21:29.863Z,85.61
2023-11-05T13:21:58.625Z,85.21
2023-11-05T13:22:29.099Z,85.51
2023-11-05T13:22:59.559Z,85.21
2023-11-05T13:23:29.992Z,84.39
2023-11-05T13:24:00.573Z,85.00
2023-11-05T13:24:30.994Z,84.90
2023-11-05T13:25:01.458Z,84.59
2023-11-05T13:25:31.986Z,85.00
2023-11-05T13:26:02.522Z,85.00
2023-11-05T13:26:32.938Z,86.12
2023-11-05T13:27:03.393Z,85.21
2023-11-05T13:27:33.870Z,85.61
2023-11-05T13:28:04.290Z,84.90
2023-11-05T13:28:34.757Z,84.18
2023-11-05T13:29:05.216Z,83.37
2023-11-05T13:29:35.680Z,84.39
2023-11-05T13:30:06.133Z,84.80
2023-11-05T13:30:36.584Z,84.90
2023-11-05T13:31:07.076Z,85.77
2023-11-05T13:31:38.550Z,85.51
2023-11-05T13:32:08.292Z,85.00
2023-11-05T13:32:38.824Z,84.39
2023-11-05T13:33:09.437Z,83.87
2023-11-05T13:33:40.001Z,83.06
2023-11-05T13:34:10.465Z,82.96
2023-11-05T13:34:41.201Z,83.67
2023-11-05T13:35:11.663Z,84.08
2023-11-05T13:35:41.867Z,84.08
2023-11-05T13:36:12.323Z,85.51
2023-11-05T13:36:42.947Z,84.39
2023-11-05T13:41:34.032Z,83.43
2023-11-05T13:42:04.694Z,83.84
2023-11-05T13:42:35.415Z,83.94
2023-11-05T13:43:06.318Z,82.92
2023-11-05T13:43:36.287Z,81.59
2023-11-05T13:44:06.740Z,82.10
2023-11-05T13:44:37.181Z,82.51
2023-11-05T13:45:07.663Z,82.21
2023-11-05T13:45:38.197Z,82.82
2023-11-05T13:46:08.808Z,80.88
2023-11-05T13:46:39.458Z,80.57
2023-11-05T13:47:09.981Z,80.98
2023-11-05T13:47:40.728Z,81.29
2023-11-05T13:48:11.269Z,81.59
2023-11-05T13:48:41.845Z,82.10
2023-11-05T13:49:12.375Z,81.59
2023-11-05T13:49:42.868Z,81.39
2023-11-05T13:50:13.416Z,81.70
2023-11-05T13:50:45.091Z,81.59
2023-11-05T13:51:14.753Z,81.18
2023-11-05T13:51:45.313Z,81.12
2023-11-05T13:52:15.881Z,80.20
2023-11-05T13:52:46.872Z,81.23
2023-11-05T13:53:16.866Z,81.84
2023-11-05T13:53:47.360Z,81.84
2023-11-05T13:54:17.854Z,80.61
2023-11-05T13:54:49.655Z,80.51
2023-11-05T13:55:18.821Z,80.41
2023-11-05T13:55:49.307Z,80.82
2023-11-05T13:56:19.845Z,81.23
2023-11-05T13:56:50.360Z,81.02
2023-11-05T13:57:20.829Z,80.71
2023-11-05T13:57:51.321Z,81.12
2023-11-05T13:58:21.787Z,81.73
2023-11-05T13:58:52.380Z,81.63
2023-11-05T13:59:22.856Z,81.63
2023-11-05T13:59:53.293Z,81.84
2023-11-05T14:00:24.049Z,82.35
2023-11-05T14:00:54.299Z,82.45
2023-11-05T14:01:25.051Z,83.06
2023-11-05T14:01:55.833Z,81.94
2023-11-05T14:02:26.260Z,81.67
2023-11-05T14:02:56.776Z,81.67
2023-11-05T14:03:27.499Z,81.57
2023-11-05T14:03:58.178Z,81.46
2023-11-05T14:04:28.780Z,82.49
2023-11-05T14:04:59.434Z,81.98
2023-11-05T14:05:30.040Z,82.49
2023-11-05T14:06:00.505Z,83.10
2023-11-05T14:06:31.249Z,83.00
2023-11-05T14:07:01.922Z,83.20
2023-11-05T14:07:32.564Z,82.59
2023-11-05T14:08:03.118Z,82.39
2023-11-05T14:08:33.723Z,83.30
2023-11-05T14:09:04.556Z,82.49
2023-11-05T14:09:34.675Z,81.98
2023-11-05T14:10:05.154Z,82.79
2023-11-05T14:10:35.674Z,82.28
2023-11-05T14:11:06.184Z,82.79
2023-11-05T14:11:36.976Z,83.20
2023-11-05T14:12:07.739Z,82.89
2023-11-05T14:12:38.212Z,82.59
2023-11-05T14:13:09.583Z,83.10
2023-11-05T14:13:39.097Z,82.89
2023-11-05T14:17:29.490Z,84.12
2023-11-05T14:17:59.024Z,84.22
2023-11-05T14:18:29.790Z,84.74
2023-11-05T14:19:01.450Z,85.04
2023-11-05T14:19:30.545Z,85.65
2023-11-05T14:20:00.971Z,86.57
2023-11-05T14:20:31.430Z,86.06
2023-11-05T14:21:01.878Z,86.16
2023-11-05T14:21:32.374Z,86.82
2023-11-05T14:22:02.854Z,86.82
2023-11-05T14:22:33.358Z,87.12
2023-11-05T14:23:04.152Z,87.43
2023-11-05T14:23:34.867Z,87.73
2023-11-05T14:24:05.324Z,88.24
2023-11-05T14:24:35.747Z,88.04
2023-11-05T14:25:06.205Z,88.04
2023-11-05T14:25:36.672Z,87.63
2023-11-05T14:26:07.102Z,87.53
2023-11-05T14:26:37.611Z,87.23
2023-11-05T14:27:26.660Z,87.63
2023-11-05T14:27:38.727Z,87.84
2023-11-05T14:29:32.130Z,87.67
2023-11-05T14:29:59.415Z,87.77
2023-11-05T14:30:30.044Z,88.18
2023-11-05T14:31:00.847Z,88.08
2023-11-05T14:31:30.727Z,87.88
2023-11-05T14:32:01.256Z,87.98
2023-11-05T14:32:31.734Z,88.08
2023-11-05T14:33:03.705Z,89.20
2023-11-05T14:33:32.991Z,88.79
2023-11-05T14:34:03.475Z,88.79
2023-11-05T14:34:43.707Z,88.39
2023-11-05T14:35:06.000Z,88.59
2023-11-05T14:37:01.108Z,89.41
2023-11-05T14:37:31.812Z,89.61
2023-11-05T14:38:02.495Z,89.51
2023-11-05T14:38:33.038Z,90.12
2023-11-05T14:39:05.487Z,89.82
2023-11-05T14:39:33.904Z,89.61
2023-11-05T14:40:04.317Z,90.53
2023-11-05T14:40:34.773Z,90.74
2023-11-05T14:41:05.243Z,91.35
2023-11-05T14:41:35.674Z,91.50
2023-11-05T14:42:06.107Z,91.39
2023-11-05T14:42:36.565Z,91.39
2023-11-05T14:43:07.104Z,91.29
2023-11-05T14:43:37.600Z,91.39
2023-11-05T14:44:08.065Z,91.50
2023-11-05T14:44:38.545Z,91.70
2023-11-05T14:45:19.049Z,91.91
2023-11-05T14:45:40.645Z,91.91
2023-11-05T14:46:10.405Z,90.99
2023-11-05T14:46:40.923Z,90.68
2023-11-05T14:47:11.354Z,90.58
2023-11-05T14:47:41.920Z,90.68
2023-11-05T14:49:39.428Z,91.29
2023-11-05T14:50:10.010Z,91.60
2023-11-05T14:50:40.625Z,91.91
2023-11-05T14:51:11.117Z,91.80
2023-11-05T14:51:42.008Z,91.91
2023-11-05T14:52:12.423Z,91.91
2023-11-05T14:52:42.879Z,90.88
2023-11-05T14:53:13.344Z,90.68
2023-11-05T14:53:43.752Z,90.58
2023-11-05T14:54:14.244Z,91.19
2023-11-05T14:54:44.722Z,90.68
2023-11-05T14:55:15.176Z,90.27
2023-11-05T14:55:45.663Z,90.17
2023-11-05T14:56:16.161Z,90.99
2023-11-05T14:56:46.562Z,90.99
2023-11-05T14:57:17.283Z,91.19
2023-11-05T14:57:47.803Z,91.60
2023-11-05T14:58:18.328Z,90.92
2023-11-05T14:58:48.849Z,90.88
2023-11-05T14:59:19.310Z,91.19
2023-11-05T14:59:49.759Z,91.19
2023-11-05T15:00:20.199Z,91.19
2023-11-05T15:00:50.632Z,91.33
2023-11-05T15:01:21.099Z,91.33
2023-11-05T15:01:51.527Z,91.03
2023-11-05T15:02:21.978Z,91.09
2023-11-05T15:02:52.575Z,91.23
2023-11-05T15:03:23.134Z,91.54
2023-11-05T15:03:53.606Z,91.64
2023-11-05T15:04:24.120Z,91.54
2023-11-05T15:04:54.597Z,91.13
2023-11-05T15:05:25.042Z,91.13
2023-11-05T15:05:55.511Z,91.74
2023-11-05T15:06:25.932Z,91.33
2023-11-05T15:06:56.364Z,91.23
2023-11-05T15:07:26.840Z,91.64
2023-11-05T15:07:57.353Z,91.54
2023-11-05T15:08:27.745Z,91.33
2023-11-05T15:08:58.188Z,91.33
2023-11-05T15:09:28.667Z,91.54
2023-11-05T15:09:59.098Z,91.54
2023-11-05T15:10:29.758Z,91.13
2023-11-05T15:11:00.408Z,90.92
2023-11-05T15:11:30.833Z,91.44
2023-11-05T15:12:06.319Z,91.44
2023-11-05T15:12:36.036Z,91.13
2023-11-05T15:13:02.490Z,91.23
2023-11-05T15:13:32.981Z,91.23
2023-11-05T15:14:03.462Z,91.33
2023-11-05T15:14:33.885Z,90.92
2023-11-05T15:15:13.873Z,91.95
2023-11-05T15:15:34.898Z,91.33
2023-11-05T15:16:05.467Z,90.62
2023-11-05T15:16:46.473Z,90.52
2023-11-05T15:17:06.784Z,90.62
2023-11-05T15:17:37.428Z,89.70
2023-11-05T15:32:13.324Z,88.78
2023-11-05T15:32:43.859Z,88.06
2023-11-05T15:33:14.503Z,88.37
2023-11-05T15:33:45.160Z,88.68
2023-11-05T15:34:15.666Z,88.98
2023-11-05T15:34:46.152Z,88.88
2023-11-05T15:35:17.753Z,88.57
2023-11-05T15:35:47.482Z,88.06
2023-11-05T15:36:17.948Z,87.30
2023-11-05T15:36:48.404Z,87.51
2023-11-05T15:37:18.953Z,87.20
2023-11-05T15:37:49.664Z,87.30
2023-11-05T15:38:19.866Z,87.51
2023-11-05T16:01:13.233Z,84.75
2023-11-05T16:01:41.845Z,85.06
2023-11-05T16:02:12.296Z,85.26
2023-11-05T16:02:43.085Z,83.73
2023-11-05T16:03:13.727Z,84.55
2023-11-05T16:07:38.964Z,83.52
2023-11-05T16:08:09.624Z,83.42
2023-11-05T16:08:40.460Z,83.73
2023-11-05T16:09:11.160Z,83.62
2023-11-05T16:09:42.306Z,83.62
2023-11-05T16:10:12.415Z,83.73
2023-11-05T16:10:42.890Z,83.62
2023-11-05T16:11:13.519Z,83.62
2023-11-05T16:11:44.248Z,83.32
2023-11-05T16:12:14.748Z,83.42
2023-11-05T16:12:45.188Z,83.42
2023-11-05T16:13:17.886Z,83.52
2023-11-05T16:13:48.083Z,83.42
2023-11-05T16:14:16.790Z,83.11
2023-11-05T16:14:47.296Z,83.22
2023-11-05T18:07:42.454Z,82.89
2023-11-05T18:08:11.971Z,82.98
2023-11-05T18:08:42.759Z,82.89
2023-11-05T18:09:12.808Z,83.19
2023-11-05T18:09:43.636Z,83.44
2023-11-05T18:10:14.342Z,83.44
2023-11-05T18:10:50.739Z,83.44
2023-11-05T18:11:16.339Z,83.54
2023-11-05T18:11:46.258Z,83.03
2023-11-05T18:12:16.988Z,83.13
2023-11-05T18:12:47.895Z,83.23
2023-11-05T18:13:18.589Z,83.33
2023-11-05T18:13:49.329Z,83.23
2023-11-05T18:14:20.037Z,83.44
2023-11-05T18:14:52.987Z,83.33
2023-11-05T18:15:21.530Z,83.44
2023-11-05T18:15:52.357Z,83.13
2023-11-05T18:16:23.032Z,83.23
2023-11-05T18:16:53.945Z,83.23
2023-11-05T18:17:24.671Z,83.03
2023-11-05T18:17:55.342Z,83.03
2023-11-05T18:18:26.077Z,83.03
2023-11-05T18:18:56.781Z,83.54
2023-11-05T18:19:27.452Z,83.33
2023-11-05T18:19:58.323Z,83.13
2023-11-05T18:20:29.050Z,83.23
2023-11-05T18:21:00.731Z,83.13
2023-11-05T18:21:30.024Z,82.71
2023-11-05T18:22:00.788Z,83.03
2023-11-05T18:22:31.519Z,82.92
2023-11-05T18:23:02.288Z,83.23
2023-11-05T18:23:32.911Z,83.33
2023-11-05T18:24:03.785Z,83.03
2023-11-05T18:24:33.837Z,83.03
2023-11-05T18:25:04.471Z,83.03
2023-11-05T18:25:35.208Z,83.03
2023-11-05T18:26:05.928Z,83.03
2023-11-05T18:26:36.625Z,82.92
2023-11-05T18:27:07.327Z,83.03
2023-11-05T18:27:37.963Z,83.23
2023-11-05T18:28:08.584Z,83.23
2023-11-05T18:28:39.260Z,82.82
2023-11-05T18:29:10.040Z,82.62
2023-11-05T18:29:40.724Z,82.71
2023-11-05T18:30:11.404Z,82.62
2023-11-05T18:30:42.086Z,82.41
2023-11-05T18:31:12.784Z,82.51
2023-11-05T18:31:43.570Z,82.51
2023-11-05T18:32:14.275Z,82.62
2023-11-05T18:32:44.992Z,82.41
2023-11-05T18:33:15.842Z,82.82
2023-11-05T18:33:46.734Z,82.71
2023-11-05T18:34:17.361Z,82.62
2023-11-05T18:34:48.959Z,82.41
2023-11-05T18:35:18.859Z,82.41
2023-11-05T18:35:49.640Z,82.62
2023-11-05T18:36:20.397Z,83.03
2023-11-05T18:36:51.112Z,83.23
2023-11-05T18:37:21.787Z,82.71
2023-11-05T18:37:52.572Z,82.41
2023-11-05T18:38:23.409Z,82.51
2023-11-05T18:38:54.114Z,82.51
2023-11-05T18:39:24.896Z,82.51
2023-11-05T18:39:55.572Z,83.03
2023-11-05T18:40:26.262Z,82.92
2023-11-05T18:40:56.894Z,82.82
2023-11-05T18:41:27.532Z,82.92
2023-11-05T18:41:58.254Z,83.03
2023-11-05T18:42:29.053Z,83.03
2023-11-05T19:34:37.375Z,82.98
2023-11-05T19:35:08.241Z,82.68
2023-11-05T19:35:39.360Z,82.89
2023-11-05T19:36:09.296Z,82.68
2023-11-05T19:36:40.025Z,82.68
2023-11-05T19:37:10.670Z,82.78
2023-11-05T19:37:41.358Z,82.48
2023-11-05T19:38:12.034Z,82.27
2023-11-05T19:38:42.641Z,82.84
2023-11-05T19:39:13.277Z,82.54
2023-11-05T19:39:43.916Z,82.75
2023-11-05T19:40:14.598Z,82.43
2023-11-05T19:40:45.198Z,82.23
2023-11-05T20:42:38.589Z,83.64
2023-11-05T20:43:09.332Z,83.74
2023-11-05T20:50:21.234Z,83.64
2023-11-05T20:50:51.004Z,83.74
2023-11-05T20:51:20.770Z,83.54
2023-11-05T20:51:51.011Z,83.64
2023-11-05T20:52:21.759Z,83.84
2023-11-05T20:52:52.159Z,83.74
2023-11-05T20:53:22.269Z,83.33
2023-11-05T21:18:10.934Z,84.39
2023-11-05T21:18:39.072Z,84.50
2023-11-05T21:19:11.370Z,84.09
2023-11-05T21:19:39.976Z,84.29
2023-11-05T21:20:10.636Z,84.19
2023-11-05T21:20:41.326Z,84.39
2023-11-05T21:21:12.071Z,84.39
2023-11-05T21:21:42.714Z,83.98
2023-11-05T21:22:13.379Z,84.19
2023-11-05T21:22:44.070Z,84.29
2023-11-05T21:23:14.677Z,84.39
2023-11-05T21:23:45.322Z,84.19
2023-11-05T21:24:15.951Z,84.29
2023-11-05T21:24:46.616Z,84.50
2023-11-05T21:25:17.232Z,84.39
2023-11-05T21:25:47.916Z,84.39
2023-11-05T21:26:18.742Z,84.09
2023-11-05T21:26:49.468Z,84.19
2023-11-05T21:27:20.233Z,84.60
2023-11-05T21:27:51.041Z,84.39
2023-11-05T21:28:21.721Z,84.60
2023-11-05T21:28:52.446Z,84.29
2023-11-05T21:29:23.328Z,84.39
2023-11-05T21:29:54.075Z,84.29
2023-11-05T21:30:24.743Z,84.29
2023-11-05T21:30:55.525Z,84.09
2023-11-05T21:31:26.166Z,84.29
2023-11-05T21:31:56.922Z,84.39
2023-11-05T21:32:27.655Z,84.29
2023-11-05T21:32:58.530Z,84.19
2023-11-05T21:33:29.525Z,84.19
2023-11-05T21:33:59.463Z,84.19
2023-11-05T21:34:30.054Z,84.29
2023-11-05T21:35:00.747Z,84.29
2023-11-05T21:35:31.410Z,84.19
2023-11-05T21:36:02.114Z,84.39
2023-11-05T21:36:32.764Z,84.39
2023-11-05T21:37:03.400Z,84.19
2023-11-05T21:37:34.097Z,84.09
2023-11-05T21:38:05.029Z,84.29
2023-11-05T21:38:35.700Z,84.19
2023-11-05T21:39:06.356Z,84.39
2023-11-05T21:39:36.963Z,84.29
2023-11-05T21:40:07.597Z,84.09
2023-11-05T21:40:38.308Z,84.09
2023-11-05T21:41:08.991Z,83.98
2023-11-05T21:41:39.751Z,84.09
2023-11-05T21:42:10.432Z,84.09
2023-11-05T21:42:41.065Z,84.19
2023-11-05T21:43:11.722Z,84.09
2023-11-05T21:43:42.463Z,83.88
2023-11-05T21:44:13.081Z,83.98
2023-11-05T21:44:46.441Z,84.19
2023-11-05T21:45:14.287Z,83.98
2023-11-05T21:45:44.977Z,84.09
2023-11-05T23:23:47.038Z,83.91
2023-11-05T23:24:18.638Z,83.70
2023-11-05T23:24:48.719Z,83.70
2023-11-05T23:25:29.134Z,83.60
2023-11-05T23:25:50.854Z,83.81
2023-11-05T23:26:20.186Z,83.60
2023-11-05T23:26:50.917Z,83.50
2023-11-05T23:27:21.556Z,83.60
2023-11-05T23:27:52.268Z,83.70
2023-11-05T23:28:22.917Z,83.29
2023-11-05T23:28:54.665Z,83.09
